createdAt,value
2023-06-17T00:01:28.169Z,11.44
2023-06-17T00:03:55.002Z,11.68
2023-06-17T00:06:21.844Z,10.09
2023-06-17T00:08:48.512Z,11.49
2023-06-17T00:11:15.235Z,11.57
2023-06-17T00:13:41.916Z,10.29
2023-06-17T00:16:10.363Z,11.69
2023-06-17T00:18:37.280Z,11.52
2023-06-17T00:21:03.987Z,11.29
2023-06-17T00:23:31.332Z,11.53
2023-06-17T00:25:58.447Z,11.07
2023-06-17T00:28:25.100Z,11.41
2023-06-17T00:30:51.767Z,11.21
2023-06-17T00:33:18.408Z,10.41
2023-06-17T00:35:45.104Z,11.19
2023-06-17T00:38:11.839Z,10.19
2023-06-17T00:40:38.576Z,10.77
2023-06-17T00:43:05.241Z,11.07
2023-06-17T00:45:39.731Z,9.45
2023-06-17T00:48:10.260Z,9.38
2023-06-17T00:50:37.843Z,10.24
2023-06-17T00:53:04.864Z,11.16
2023-06-17T00:55:33.774Z,10.78
2023-06-17T00:58:00.614Z,11.30
2023-06-17T01:00:27.339Z,10.89
2023-06-17T01:02:54.136Z,10.86
2023-06-17T01:05:20.818Z,10.68
2023-06-17T01:08:01.186Z,10.57
2023-06-17T01:10:43.091Z,11.39
2023-06-17T01:13:10.736Z,9.56
2023-06-17T01:15:37.569Z,11.05
2023-06-17T01:18:05.488Z,10.70
2023-06-17T01:20:37.468Z,10.98
2023-06-17T01:23:05.128Z,11.12
2023-06-17T01:25:33.026Z,9.88
2023-06-17T01:28:17.106Z,10.85
2023-06-17T01:30:50.184Z,10.49
2023-06-17T01:33:17.088Z,10.73
2023-06-17T01:36:36.424Z,11.13
2023-06-17T01:39:07.027Z,10.69
2023-06-17T01:41:46.763Z,10.52
2023-06-17T01:44:13.486Z,10.63
2023-06-17T01:46:40.644Z,10.51
2023-06-17T01:49:08.046Z,10.33
2023-06-17T01:51:34.791Z,10.49
2023-06-17T01:54:01.469Z,10.09
2023-06-17T01:56:28.513Z,10.73
2023-06-17T01:58:55.340Z,10.64
2023-06-17T02:01:22.301Z,10.39
2023-06-17T02:03:48.989Z,9.48
2023-06-17T02:06:15.828Z,10.56
2023-06-17T02:08:43.255Z,10.21
2023-06-17T02:11:10.025Z,10.58
2023-06-17T02:13:36.670Z,10.87
2023-06-17T02:16:03.810Z,10.54
2023-06-17T02:18:33.679Z,10.62
2023-06-17T02:21:03.488Z,10.54
2023-06-17T02:23:30.700Z,11.02
2023-06-17T02:25:58.497Z,10.01
2023-06-17T02:28:25.617Z,10.57
2023-06-17T02:30:52.324Z,8.80
2023-06-17T02:33:22.385Z,10.60
2023-06-17T02:35:49.569Z,9.58
2023-06-17T02:38:16.317Z,10.47
2023-06-17T02:40:42.979Z,10.34
2023-06-17T02:43:09.701Z,9.80
2023-06-17T02:45:36.429Z,10.34
2023-06-17T02:48:03.759Z,10.23
2023-06-17T02:50:30.505Z,10.70
2023-06-17T02:52:57.564Z,10.49
2023-06-17T02:55:24.431Z,8.91
2023-06-17T02:57:51.120Z,9.04
2023-06-17T03:00:18.521Z,10.05
2023-06-17T03:02:45.622Z,8.48
2023-06-17T03:05:13.967Z,9.91
2023-06-17T03:07:41.512Z,9.77
2023-06-17T03:10:09.206Z,9.79
2023-06-17T03:12:35.988Z,10.60
2023-06-17T03:15:02.709Z,10.46
2023-06-17T03:17:29.568Z,10.56
2023-06-17T03:19:58.348Z,10.89
2023-06-17T03:22:25.026Z,11.15
2023-06-17T03:24:52.208Z,9.94
2023-06-17T03:27:18.949Z,10.69
2023-06-17T03:29:45.684Z,9.47
2023-06-17T03:32:12.456Z,11.07
2023-06-17T03:34:39.141Z,10.85
2023-06-17T03:37:05.972Z,10.52
2023-06-17T03:39:32.640Z,10.84
2023-06-17T03:41:59.346Z,11.05
2023-06-17T03:44:26.181Z,11.11
2023-06-17T03:46:52.808Z,11.28
2023-06-17T03:49:19.498Z,10.08
2023-06-17T03:51:46.882Z,11.63
2023-06-17T03:54:13.581Z,11.87
2023-06-17T03:56:40.658Z,11.12
2023-06-17T03:59:07.275Z,10.53
2023-06-17T04:01:34.412Z,11.46
2023-06-17T04:04:01.219Z,11.81
2023-06-17T04:06:28.070Z,11.16
2023-06-17T04:08:55.331Z,10.50
2023-06-17T04:11:22.140Z,11.59
2023-06-17T04:13:48.841Z,11.95
2023-06-17T04:16:16.470Z,11.86
2023-06-17T04:18:43.288Z,11.83
2023-06-17T04:21:10.703Z,12.20
2023-06-17T04:23:37.411Z,11.66
2023-06-17T04:26:04.625Z,11.82
2023-06-17T04:28:33.478Z,12.25
2023-06-17T04:31:02.359Z,11.08
2023-06-17T04:33:31.908Z,12.34
2023-06-17T04:35:58.876Z,12.38
2023-06-17T04:38:25.896Z,12.68
2023-06-17T04:40:54.238Z,12.76
2023-06-17T04:43:24.314Z,12.04
2023-06-17T04:45:51.643Z,12.82
2023-06-17T04:48:18.324Z,11.65
2023-06-17T04:50:45.009Z,13.18
2023-06-17T04:53:12.936Z,13.97
2023-06-17T04:55:39.712Z,14.34
2023-06-17T04:58:06.590Z,14.14
2023-06-17T05:00:33.244Z,14.90
2023-06-17T05:02:59.975Z,14.22
2023-06-17T05:05:26.773Z,15.45
2023-06-17T05:07:53.424Z,14.46
2023-06-17T05:10:20.315Z,15.90
2023-06-17T05:12:47.267Z,15.29
2023-06-17T05:15:13.952Z,15.03
2023-06-17T05:17:43.363Z,15.74
2023-06-17T05:20:11.609Z,15.58
2023-06-17T05:22:38.545Z,15.44
2023-06-17T05:25:05.782Z,15.82
2023-06-17T05:27:32.451Z,15.24
2023-06-17T05:29:59.218Z,15.59
2023-06-17T05:32:26.555Z,15.06
2023-06-17T05:34:53.447Z,15.04
2023-06-17T05:37:20.127Z,14.18
2023-06-17T05:39:47.031Z,14.88
2023-06-17T05:42:13.726Z,14.71
2023-06-17T05:44:41.224Z,14.28
2023-06-17T05:47:08.092Z,14.64
2023-06-17T05:49:34.813Z,14.88
2023-06-17T05:52:01.563Z,14.93
2023-06-17T05:54:28.283Z,14.21
2023-06-17T05:56:55.014Z,14.19
2023-06-17T05:59:21.938Z,14.00
2023-06-17T06:01:48.888Z,15.21
2023-06-17T06:04:15.797Z,13.40
2023-06-17T06:06:42.624Z,13.26
2023-06-17T06:09:09.394Z,14.61
2023-06-17T06:11:36.398Z,14.63
2023-06-17T06:14:03.268Z,14.57
2023-06-17T06:16:29.991Z,15.28
2023-06-17T06:18:56.734Z,17.35
2023-06-17T06:21:23.401Z,18.85
2023-06-17T06:23:50.551Z,20.73
2023-06-17T06:26:17.300Z,20.32
2023-06-17T06:28:44.169Z,22.07
2023-06-17T06:31:11.957Z,22.22
2023-06-17T06:33:38.768Z,24.49
2023-06-17T06:36:05.531Z,24.62
2023-06-17T06:38:32.190Z,24.52
2023-06-17T06:40:58.903Z,24.20
2023-06-17T06:43:25.692Z,23.59
2023-06-17T06:45:52.567Z,23.05
2023-06-17T06:48:19.259Z,21.99
2023-06-17T06:50:45.947Z,22.24
2023-06-17T06:53:12.730Z,21.75
2023-06-17T06:55:39.402Z,21.17
2023-06-17T06:58:06.076Z,20.21
2023-06-17T07:00:32.838Z,20.11
2023-06-17T07:02:59.587Z,19.46
2023-06-17T07:05:26.492Z,20.05
2023-06-17T07:07:53.183Z,20.31
2023-06-17T07:10:20.297Z,20.32
2023-06-17T07:12:47.330Z,20.15
2023-06-17T07:15:15.286Z,18.10
2023-06-17T07:17:42.333Z,19.72
2023-06-17T07:20:09.812Z,19.12
2023-06-17T07:22:36.567Z,18.76
2023-06-17T07:25:03.925Z,18.96
2023-06-17T07:27:30.601Z,18.99
2023-06-17T07:29:57.301Z,18.78
2023-06-17T07:32:38.938Z,19.06
2023-06-17T07:35:06.386Z,18.50
2023-06-17T07:37:33.047Z,18.08
2023-06-17T07:39:59.678Z,18.58
2023-06-17T07:42:26.344Z,18.16
2023-06-17T07:44:53.295Z,18.28
2023-06-17T07:47:20.119Z,17.25
2023-06-17T07:49:47.100Z,18.71
2023-06-17T07:52:13.796Z,18.36
2023-06-17T07:54:40.610Z,17.85
2023-06-17T07:57:07.329Z,17.59
2023-06-17T07:59:34.131Z,19.25
2023-06-17T08:02:00.887Z,18.20
2023-06-17T08:04:27.662Z,18.84
2023-06-17T08:06:54.340Z,19.49
2023-06-17T08:09:21.196Z,19.91
2023-06-17T08:11:49.165Z,19.81
2023-06-17T08:14:16.670Z,20.48
2023-06-17T08:16:44.228Z,20.25
2023-06-17T08:19:11.124Z,20.58
2023-06-17T08:21:38.445Z,18.68
2023-06-17T08:24:25.861Z,20.07
2023-06-17T08:26:53.416Z,20.44
2023-06-17T08:29:20.184Z,20.50
2023-06-17T08:31:52.223Z,20.44
2023-06-17T08:34:19.854Z,19.83
2023-06-17T08:36:50.828Z,18.73
2023-06-17T08:39:17.613Z,19.59
2023-06-17T08:41:44.425Z,19.92
2023-06-17T08:44:12.873Z,19.81
2023-06-17T08:46:40.344Z,19.35
2023-06-17T08:49:10.271Z,19.44
2023-06-17T08:51:37.034Z,20.02
2023-06-17T08:54:04.030Z,19.75
2023-06-17T08:56:30.747Z,19.73
2023-06-17T08:58:57.832Z,19.54
2023-06-17T09:01:24.925Z,20.93
2023-06-17T09:03:52.414Z,21.49
2023-06-17T09:06:22.764Z,21.71
2023-06-17T09:08:49.617Z,20.83
2023-06-17T09:11:16.313Z,21.38
2023-06-17T09:13:43.133Z,21.19
2023-06-17T09:16:09.921Z,21.74
2023-06-17T09:18:36.700Z,21.35
2023-06-17T09:21:03.920Z,21.74
2023-06-17T09:23:30.656Z,21.41
2023-06-17T09:26:04.311Z,20.34
2023-06-17T09:28:32.139Z,21.35
2023-06-17T09:31:00.761Z,21.25
2023-06-17T09:33:28.169Z,21.04
2023-06-17T09:36:02.154Z,21.88
2023-06-17T09:38:34.594Z,22.06
2023-06-17T09:41:01.387Z,22.21
2023-06-17T09:43:29.015Z,21.29
2023-06-17T09:46:02.866Z,22.52
2023-06-17T09:48:33.206Z,22.17
2023-06-17T09:51:00.241Z,22.11
2023-06-17T09:53:31.365Z,21.00
2023-06-17T09:56:00.190Z,20.79
2023-06-17T09:58:34.146Z,21.66
2023-06-17T10:01:02.266Z,21.09
2023-06-17T10:03:29.411Z,22.24
2023-06-17T10:06:00.916Z,21.59
2023-06-17T10:08:27.750Z,21.91
2023-06-17T10:10:54.426Z,22.17
2023-06-17T10:13:21.734Z,22.05
2023-06-17T10:15:48.656Z,21.79
2023-06-17T10:18:15.319Z,21.73
2023-06-17T10:20:42.080Z,21.98
2023-06-17T10:23:08.940Z,22.61
2023-06-17T10:25:36.978Z,22.03
2023-06-17T10:28:06.528Z,23.00
2023-06-17T10:30:35.527Z,23.01
2023-06-17T10:33:03.397Z,22.60
2023-06-17T10:35:55.069Z,23.47
2023-06-17T10:38:29.622Z,22.64
2023-06-17T10:40:58.116Z,23.25
2023-06-17T10:43:25.081Z,22.60
2023-06-17T10:45:58.365Z,22.68
2023-06-17T10:48:32.365Z,22.38
2023-06-17T10:51:03.557Z,22.14
2023-06-17T10:53:32.942Z,22.61
2023-06-17T10:56:00.794Z,21.85
2023-06-17T10:58:35.784Z,22.34
2023-06-17T11:01:06.746Z,21.54
2023-06-17T11:03:33.926Z,22.15
2023-06-17T11:06:05.058Z,22.22
2023-06-17T11:08:33.009Z,22.19
2023-06-17T11:11:09.717Z,22.82
2023-06-17T11:13:40.332Z,22.93
2023-06-17T11:16:10.641Z,22.96
2023-06-17T11:18:38.283Z,22.61
2023-06-17T11:21:05.316Z,21.89
2023-06-17T11:24:08.118Z,23.62
2023-06-17T11:26:35.369Z,23.65
2023-06-17T11:29:05.285Z,23.24
2023-06-17T11:31:39.520Z,23.68
2023-06-17T11:34:07.669Z,22.57
2023-06-17T11:36:37.341Z,23.71
2023-06-17T11:39:04.110Z,24.36
2023-06-17T11:41:30.893Z,24.36
2023-06-17T11:43:57.582Z,23.21
2023-06-17T11:46:24.958Z,24.18
2023-06-17T11:48:52.023Z,23.19
2023-06-17T11:51:19.276Z,23.46
2023-06-17T11:53:48.645Z,23.80
2023-06-17T11:56:21.415Z,23.90
2023-06-17T11:58:48.535Z,24.03
2023-06-17T12:01:15.266Z,23.89
2023-06-17T12:03:48.256Z,23.90
2023-06-17T12:06:21.724Z,24.19
2023-06-17T12:09:04.120Z,23.48
2023-06-17T12:11:36.922Z,22.93
2023-06-17T12:14:12.133Z,23.87
2023-06-17T12:16:41.030Z,22.78
2023-06-17T12:19:10.686Z,23.63
2023-06-17T12:21:40.264Z,22.95
2023-06-17T12:24:07.044Z,23.09
2023-06-17T12:26:33.757Z,23.24
2023-06-17T12:29:03.072Z,22.66
2023-06-17T12:31:35.770Z,22.09
2023-06-17T12:34:03.418Z,21.51
2023-06-17T12:36:30.074Z,22.03
2023-06-17T12:38:57.801Z,21.73
2023-06-17T12:41:24.491Z,22.33
2023-06-17T12:43:51.749Z,22.70
2023-06-17T12:46:18.596Z,22.65
2023-06-17T12:48:45.344Z,23.10
2023-06-17T12:51:13.017Z,22.97
2023-06-17T12:53:41.495Z,23.18
2023-06-17T12:56:08.232Z,23.27
2023-06-17T12:58:34.918Z,22.48
2023-06-17T13:01:02.487Z,23.09
2023-06-17T13:03:29.279Z,23.55
2023-06-17T13:05:55.970Z,23.19
2023-06-17T13:08:22.694Z,22.76
2023-06-17T13:10:49.428Z,21.90
2023-06-17T13:13:16.136Z,23.23
2023-06-17T13:15:43.142Z,22.20
2023-06-17T13:18:10.077Z,23.05
2023-06-17T13:20:36.900Z,22.95
2023-06-17T13:23:03.787Z,23.09
2023-06-17T13:25:30.496Z,20.38
2023-06-17T13:27:57.506Z,23.03
2023-06-17T13:30:24.589Z,22.74
2023-06-17T13:32:51.752Z,22.98
2023-06-17T13:35:18.934Z,22.64
2023-06-17T13:37:46.593Z,22.26
2023-06-17T13:40:13.406Z,22.80
2023-06-17T13:42:40.142Z,23.45
2023-06-17T13:45:08.226Z,23.61
2023-06-17T13:47:35.128Z,22.38
2023-06-17T13:50:01.855Z,23.78
2023-06-17T13:52:28.683Z,22.92
2023-06-17T13:54:55.525Z,23.05
2023-06-17T13:57:23.204Z,22.76
2023-06-17T13:59:50.536Z,22.78
2023-06-17T14:02:17.328Z,23.49
2023-06-17T14:04:44.545Z,23.71
2023-06-17T14:07:11.322Z,23.44
2023-06-17T14:09:38.007Z,22.18
2023-06-17T14:12:06.409Z,23.93
2023-06-17T14:14:36.613Z,23.84
2023-06-17T14:17:05.579Z,23.51
2023-06-17T14:19:34.352Z,23.57
2023-06-17T14:22:01.739Z,23.27
2023-06-17T14:24:31.062Z,23.60
2023-06-17T14:27:30.182Z,23.80
2023-06-17T14:29:56.862Z,23.48
2023-06-17T14:32:23.651Z,22.06
2023-06-17T14:34:50.834Z,23.54
2023-06-17T14:37:18.326Z,22.47
2023-06-17T14:39:45.067Z,23.08
2023-06-17T14:42:13.059Z,23.02
2023-06-17T14:44:40.831Z,22.80
2023-06-17T14:47:08.068Z,23.13
2023-06-17T14:49:35.055Z,23.29
2023-06-17T14:52:01.909Z,23.30
2023-06-17T14:54:28.928Z,23.43
2023-06-17T14:56:56.507Z,23.64
2023-06-17T14:59:23.521Z,22.39
2023-06-17T15:01:50.250Z,23.69
2023-06-17T15:04:16.987Z,22.30
2023-06-17T15:06:43.909Z,23.46
2023-06-17T15:09:27.042Z,23.17
2023-06-17T15:11:54.999Z,22.91
2023-06-17T15:14:21.763Z,23.13
2023-06-17T15:16:48.713Z,22.13
2023-06-17T15:19:16.701Z,21.88
2023-06-17T15:21:43.729Z,22.83
2023-06-17T15:24:11.550Z,22.38
2023-06-17T15:26:38.306Z,21.24
2023-06-17T15:29:06.085Z,22.05
2023-06-17T15:31:33.578Z,22.16
2023-06-17T15:34:00.647Z,22.09
2023-06-17T15:36:27.925Z,21.93
2023-06-17T15:38:54.966Z,21.45
2023-06-17T15:41:21.756Z,21.49
2023-06-17T15:43:48.438Z,20.57
2023-06-17T15:46:15.115Z,20.91
2023-06-17T15:48:41.900Z,21.21
2023-06-17T15:51:08.569Z,21.03
2023-06-17T15:53:35.383Z,20.71
2023-06-17T15:56:02.306Z,21.03
2023-06-17T15:58:29.034Z,20.44
2023-06-17T16:00:55.728Z,19.63
2023-06-17T16:03:24.535Z,19.61
2023-06-17T16:05:51.249Z,20.63
2023-06-17T16:08:18.017Z,20.10
2023-06-17T16:10:44.775Z,19.87
2023-06-17T16:13:11.477Z,20.32
2023-06-17T16:15:38.244Z,20.36
2023-06-17T16:18:04.994Z,19.94
2023-06-17T16:20:31.746Z,19.22
2023-06-17T16:22:58.838Z,17.88
2023-06-17T16:25:49.890Z,19.45
2023-06-17T16:28:21.424Z,18.82
2023-06-17T16:30:48.218Z,19.62
2023-06-17T16:33:15.354Z,19.95
2023-06-17T16:35:42.152Z,19.36
2023-06-17T16:38:10.134Z,19.24
2023-06-17T16:40:36.867Z,18.08
2023-06-17T16:43:03.555Z,18.68
2023-06-17T16:45:30.244Z,18.13
2023-06-17T16:47:57.262Z,16.49
2023-06-17T16:50:24.525Z,17.55
2023-06-17T16:52:51.486Z,17.31
2023-06-17T16:55:18.231Z,17.12
2023-06-17T16:57:44.913Z,16.50
2023-06-17T17:00:12.867Z,17.17
2023-06-17T17:02:39.889Z,16.76
2023-06-17T17:05:07.235Z,16.72
2023-06-17T17:07:35.483Z,15.37
2023-06-17T17:10:02.529Z,16.82
2023-06-17T17:12:29.229Z,16.56
2023-06-17T17:14:56.699Z,16.72
2023-06-17T17:17:23.477Z,17.17
2023-06-17T17:19:50.598Z,17.68
2023-06-17T17:22:17.354Z,16.55
2023-06-17T17:24:44.605Z,17.52
2023-06-17T17:27:11.703Z,16.63
2023-06-17T17:29:38.409Z,18.12
2023-06-17T17:32:05.721Z,17.83
2023-06-17T17:34:32.636Z,17.87
2023-06-17T17:36:59.506Z,17.65
2023-06-17T17:39:26.526Z,16.52
2023-06-17T17:41:53.237Z,17.50
2023-06-17T17:44:20.068Z,17.21
2023-06-17T17:46:46.962Z,17.32
2023-06-17T17:49:13.695Z,17.49
2023-06-17T17:51:40.386Z,17.14
2023-06-17T17:54:07.164Z,16.60
2023-06-17T17:56:33.882Z,15.88
2023-06-17T17:59:01.120Z,15.89
2023-06-17T18:01:27.843Z,16.94
2023-06-17T18:03:54.628Z,16.94
2023-06-17T18:06:21.570Z,17.01
2023-06-17T18:08:48.215Z,16.19
2023-06-17T18:11:14.910Z,15.69
2023-06-17T18:13:41.697Z,15.62
2023-06-17T18:16:08.410Z,16.37
2023-06-17T18:18:35.326Z,16.45
2023-06-17T18:21:01.981Z,16.56
2023-06-17T18:23:28.676Z,16.22
2023-06-17T18:25:56.987Z,16.37
2023-06-17T18:28:23.685Z,16.48
2023-06-17T18:30:50.477Z,15.92
2023-06-17T18:33:17.340Z,16.24
2023-06-17T18:35:44.162Z,15.85
2023-06-17T18:38:10.820Z,14.59
2023-06-17T18:40:37.548Z,15.39
2023-06-17T18:43:04.295Z,15.13
2023-06-17T18:45:31.003Z,15.75
2023-06-17T18:47:57.816Z,14.99
2023-06-17T18:50:25.114Z,15.62
2023-06-17T18:52:52.100Z,15.34
2023-06-17T18:55:18.792Z,15.15
2023-06-17T18:57:45.596Z,15.51
2023-06-17T19:00:12.585Z,13.84
2023-06-17T19:02:39.385Z,15.10
2023-06-17T19:05:07.126Z,13.85
2023-06-17T19:07:33.985Z,15.19
2023-06-17T19:10:00.975Z,14.90
2023-06-17T19:12:31.156Z,14.97
2023-06-17T19:14:58.852Z,14.89
2023-06-17T19:17:26.737Z,14.89
2023-06-17T19:19:53.716Z,13.56
2023-06-17T19:22:20.462Z,14.14
2023-06-17T19:24:47.227Z,14.40
2023-06-17T19:27:14.041Z,14.55
2023-06-17T19:29:41.016Z,14.02
2023-06-17T19:32:07.842Z,14.40
2023-06-17T19:34:34.588Z,14.01
2023-06-17T19:37:01.461Z,14.25
2023-06-17T19:39:28.193Z,14.15
2023-06-17T19:41:54.890Z,14.47
2023-06-17T19:44:21.770Z,14.35
2023-06-17T19:46:48.828Z,13.81
2023-06-17T19:49:15.969Z,14.17
2023-06-17T19:51:42.959Z,13.66
2023-06-17T19:54:09.650Z,14.10
2023-06-17T19:56:36.693Z,14.04
2023-06-17T19:59:03.574Z,13.92
2023-06-17T20:01:30.546Z,12.76
2023-06-17T20:03:57.372Z,13.43
2023-06-17T20:06:26.497Z,13.38
2023-06-17T20:08:53.830Z,14.05
2023-06-17T20:11:25.600Z,13.92
2023-06-17T20:13:52.849Z,13.93
2023-06-17T20:16:19.596Z,14.09
2023-06-17T20:18:46.406Z,13.43
2023-06-17T20:21:13.213Z,13.86
2023-06-17T20:23:41.210Z,13.57
2023-06-17T20:26:08.262Z,13.25
2023-06-17T20:28:35.263Z,13.66
2023-06-17T20:31:02.125Z,12.83
2023-06-17T20:33:28.770Z,12.42
2023-06-17T20:35:55.513Z,13.40
2023-06-17T20:38:22.636Z,12.21
2023-06-17T20:40:50.073Z,13.58
2023-06-17T20:43:16.969Z,13.21
2023-06-17T20:45:43.963Z,13.18
2023-06-17T20:48:10.781Z,12.96
2023-06-17T20:50:37.951Z,13.14
2023-06-17T20:53:04.679Z,12.96
2023-06-17T20:55:31.778Z,13.00
2023-06-17T20:57:58.649Z,12.92
2023-06-17T21:00:25.775Z,13.11
2023-06-17T21:02:52.552Z,13.43
2023-06-17T21:05:21.503Z,12.80
2023-06-17T21:07:48.339Z,13.02
2023-06-17T21:10:15.297Z,13.00
2023-06-17T21:12:42.326Z,11.71
2023-06-17T21:15:09.657Z,13.33
2023-06-17T21:17:36.423Z,12.79
2023-06-17T21:20:03.817Z,12.69
2023-06-17T21:22:30.558Z,12.89
2023-06-17T21:24:57.445Z,13.30
2023-06-17T21:27:24.465Z,12.81
2023-06-17T21:29:51.139Z,12.93
2023-06-17T21:32:17.793Z,13.11
2023-06-17T21:34:44.563Z,11.74
2023-06-17T21:37:11.308Z,13.05
2023-06-17T21:39:38.382Z,13.16
2023-06-17T21:42:05.479Z,12.31
2023-06-17T21:44:34.186Z,12.66
2023-06-17T21:47:01.282Z,13.08
2023-06-17T21:49:28.038Z,13.08
2023-06-17T21:51:55.373Z,12.19
2023-06-17T21:54:22.298Z,12.87
2023-06-17T21:56:49.003Z,12.93
2023-06-17T21:59:15.765Z,12.86
2023-06-17T22:01:42.562Z,12.62
2023-06-17T22:04:09.348Z,11.69
2023-06-17T22:06:36.202Z,12.43
2023-06-17T22:09:03.010Z,12.59
2023-06-17T22:11:30.280Z,12.79
2023-06-17T22:13:57.039Z,12.71
2023-06-17T22:16:24.346Z,11.77
2023-06-17T22:18:51.712Z,12.46
2023-06-17T22:21:18.473Z,12.17
2023-06-17T22:23:45.214Z,12.66
2023-06-17T22:26:11.942Z,12.73
2023-06-17T22:28:52.720Z,12.76
2023-06-17T22:31:19.396Z,12.30
2023-06-17T22:33:46.480Z,11.89
2023-06-17T22:36:13.375Z,11.80
2023-06-17T22:38:40.089Z,11.88
2023-06-17T22:41:06.780Z,12.48
2023-06-17T22:43:33.566Z,12.38
2023-06-17T22:46:00.258Z,12.32
2023-06-17T22:48:27.260Z,12.40
2023-06-17T22:50:54.075Z,12.41
2023-06-17T22:53:23.241Z,11.83
2023-06-17T22:55:49.914Z,12.13
2023-06-17T22:58:16.636Z,12.09
2023-06-17T23:00:43.422Z,11.83
2023-06-17T23:03:10.199Z,11.73
2023-06-17T23:05:37.050Z,12.40
2023-06-17T23:08:04.619Z,11.30
2023-06-17T23:10:31.458Z,12.13
2023-06-17T23:12:58.434Z,12.24
2023-06-17T23:15:25.951Z,11.67
2023-06-17T23:17:52.687Z,12.10
2023-06-17T23:20:20.092Z,12.10
2023-06-17T23:22:46.995Z,11.53
2023-06-17T23:25:17.158Z,11.98
2023-06-17T23:27:44.602Z,12.27
2023-06-17T23:30:12.916Z,11.59
2023-06-17T23:32:40.771Z,11.83
2023-06-17T23:35:07.665Z,12.11
2023-06-17T23:37:34.319Z,11.89
2023-06-17T23:40:00.957Z,11.66
2023-06-17T23:42:27.647Z,12.20
2023-06-17T23:44:54.319Z,12.01
2023-06-17T23:47:21.458Z,11.08
2023-06-17T23:49:48.853Z,11.40
2023-06-17T23:52:15.714Z,11.82
2023-06-17T23:54:42.524Z,11.65
2023-06-17T23:57:09.301Z,11.48
